Time;durP1;ratioP1;P1;durP2;ratioP2;P2;SDS_P1;SDS_P2;PMS_P1;PMS_P2;Temp;Humidity;BMP_temperature;BMP_pressure;BME280_temperature;BME280_humidity;BME280_pressure;Samples;Min_cycle;Max_cycle;Signal;HPM_P1;HPM_P2
2024/01/24 00:00:24;;;;;;;3.08;1.30;;;;;;;18.17;81.31;101180.81;5079122;28;20036;-50
2024/01/24 00:02:49;;;;;;;2.72;1.50;;;;;;;18.16;82.00;101149.03;5084697;28;20028;-50
2024/01/24 00:05:15;;;;;;;4.25;1.55;;;;;;;18.12;81.41;101181.66;5051310;28;20468;-50
2024/01/24 00:07:41;;;;;;;2.75;1.20;;;;;;;18.16;81.77;101212.13;5085104;28;20039;-49
2024/01/24 00:10:07;;;;;;;5.18;1.30;;;;;;;18.18;81.96;101173.44;5066672;28;20516;-50
2024/01/24 00:12:32;;;;;;;4.72;1.20;;;;;;;18.11;82.93;101203.84;5084822;28;20295;-51
2024/01/24 00:14:58;;;;;;;3.85;1.45;;;;;;;18.07;82.58;101206.28;5070443;28;20029;-53
2024/01/24 00:17:23;;;;;;;3.30;1.48;;;;;;;18.05;83.30;101211.25;5052450;28;20036;-45
2024/01/24 00:19:48;;;;;;;2.95;1.20;;;;;;;18.11;82.82;101214.81;5073249;28;20020;-40
2024/01/24 00:22:14;;;;;;;4.22;1.38;;;;;;;18.12;83.57;101203.59;5078824;28;20458;-44
2024/01/24 00:24:40;;;;;;;6.18;1.30;;;;;;;18.04;84.01;101203.28;5068082;28;20029;-40
2024/01/24 00:27:05;;;;;;;5.80;1.40;;;;;;;18.08;83.38;101223.59;5070470;28;20412;-41
2024/01/24 00:29:30;;;;;;;4.38;1.23;;;;;;;18.06;84.02;101217.53;5058086;28;20136;-41
2024/01/24 00:31:56;;;;;;;4.50;1.40;;;;;;;18.07;83.96;101211.78;5063589;28;20135;-46
2024/01/24 00:34:22;;;;;;;7.13;1.70;;;;;;;18.09;83.68;101233.47;5079166;28;20031;-40
2024/01/24 00:36:49;;;;;;;4.57;1.42;;;;;;;18.09;83.31;101223.31;5071455;28;20016;-42
2024/01/24 00:39:14;;;;;;;5.88;1.60;;;;;;;18.14;83.49;101224.44;5055472;28;20400;-42
2024/01/24 00:41:43;;;;;;;5.30;1.50;;;;;;;18.09;83.27;101269.94;5070269;28;20025;-44
2024/01/24 00:44:09;;;;;;;5.13;1.40;;;;;;;18.08;84.40;101212.63;5070731;28;20036;-43
2024/01/24 00:46:34;;;;;;;4.70;1.40;;;;;;;18.09;83.93;101239.78;5071911;28;20408;-46
2024/01/24 00:49:02;;;;;;;5.68;1.63;;;;;;;18.10;83.60;101215.94;5074730;28;20032;-49
2024/01/24 00:51:28;;;;;;;5.88;1.65;;;;;;;18.09;83.43;101242.53;5083905;28;20434;-50
2024/01/24 00:53:53;;;;;;;5.68;1.67;;;;;;;18.11;83.41;101226.63;5075397;28;20024;-49
2024/01/24 00:56:20;;;;;;;4.22;1.58;;;;;;;18.10;83.10;101229.66;5072973;28;20044;-49
2024/01/24 00:58:45;;;;;;;5.40;1.88;;;;;;;18.10;83.92;101222.22;5067170;28;20030;-52
2024/01/24 01:01:11;;;;;;;4.63;1.80;;;;;;;18.00;84.99;101199.41;5086477;28;20032;-50
2024/01/24 01:03:38;;;;;;;5.03;1.80;;;;;;;18.02;84.87;101202.72;5068627;28;20016;-47
2024/01/24 01:06:04;;;;;;;6.18;1.92;;;;;;;17.99;85.13;101219.69;5073667;28;20455;-50
2024/01/24 01:08:29;;;;;;;5.05;1.48;;;;;;;18.03;84.10;101193.41;5069880;28;20107;-46
2024/01/24 01:10:55;;;;;;;6.95;1.92;;;;;;;18.07;84.52;101192.56;5078011;28;20115;-47
2024/01/24 01:13:20;;;;;;;6.75;2.03;;;;;;;18.05;83.96;101186.56;5077204;28;20962;-50
2024/01/24 01:15:45;;;;;;;6.15;1.48;;;;;;;18.01;85.35;101210.09;5077888;28;20050;-44
2024/01/24 01:18:11;;;;;;;5.63;2.05;;;;;;;17.94;85.95;101212.28;5070892;28;20118;-40
2024/01/24 01:20:36;;;;;;;5.07;1.50;;;;;;;17.95;86.32;101175.53;5085359;28;20028;-43
2024/01/24 01:23:03;;;;;;;5.20;1.77;;;;;;;17.95;86.06;101205.69;5076382;28;20391;-46
2024/01/24 01:25:28;;;;;;;6.55;1.77;;;;;;;17.94;86.45;101174.72;5070216;28;20028;-39
2024/01/24 01:27:54;;;;;;;5.55;1.80;;;;;;;17.93;86.39;101203.19;5067703;28;20577;-41
2024/01/24 01:30:20;;;;;;;9.82;2.20;;;;;;;17.93;85.56;101196.91;5080280;28;20051;-41
2024/01/24 01:32:46;;;;;;;6.15;2.03;;;;;;;17.93;86.14;101181.25;5085386;28;20028;-42
2024/01/24 01:35:11;;;;;;;6.72;1.95;;;;;;;17.91;86.23;101202.63;5084489;28;20042;-44
2024/01/24 01:37:38;;;;;;;6.72;2.10;;;;;;;17.89;86.46;101207.59;5081717;28;20035;-49
2024/01/24 01:40:06;;;;;;;9.00;2.28;;;;;;;17.88;87.01;101227.84;5081422;28;20051;-52
2024/01/24 01:42:31;;;;;;;7.57;2.25;;;;;;;17.89;86.16;101218.53;5084843;28;20028;-41
2024/01/24 01:44:57;;;;;;;6.80;2.40;;;;;;;17.86;87.01;101201.81;5087303;28;20043;-49
2024/01/24 01:47:23;;;;;;;6.72;2.20;;;;;;;17.82;87.19;101201.50;5085249;28;20038;-43
2024/01/24 01:49:48;;;;;;;7.63;2.40;;;;;;;17.86;86.52;101191.66;5062640;28;20047;-44
2024/01/24 01:52:14;;;;;;;10.63;2.85;;;;;;;17.88;86.92;101189.47;5074419;28;20054;-39
2024/01/24 01:54:40;;;;;;;6.38;2.03;;;;;;;17.89;87.00;101210.31;5070608;28;20186;-43
2024/01/24 01:57:08;;;;;;;6.38;1.98;;;;;;;17.90;86.85;101219.34;5055203;28;20480;-52
2024/01/24 01:59:34;;;;;;;7.72;2.30;;;;;;;17.88;87.11;101203.19;5088844;28;20534;-52
2024/01/24 02:02:01;;;;;;;7.10;2.50;;;;;;;17.85;87.11;101203.69;5089243;28;20028;-50
2024/01/24 02:04:27;;;;;;;8.38;2.33;;;;;;;17.83;87.16;101203.16;5083109;28;20016;-49
2024/01/24 02:06:53;;;;;;;9.48;2.33;;;;;;;17.87;86.31;101178.78;5050748;28;20499;-50
2024/01/24 02:09:18;;;;;;;9.02;2.17;;;;;;;17.86;86.87;101199.06;5079933;28;20020;-51
2024/01/24 02:11:44;;;;;;;9.57;2.15;;;;;;;17.85;86.49;101220.16;5085298;28;20066;-50
2024/01/24 02:14:11;;;;;;;8.73;2.20;;;;;;;17.87;86.06;101253.63;5074557;28;20090;-51
2024/01/24 02:16:36;;;;;;;8.52;2.58;;;;;;;17.88;85.87;101258.03;5076046;28;20078;-40
2024/01/24 02:19:01;;;;;;;9.23;2.70;;;;;;;17.91;86.50;101251.19;5071670;28;20028;-42
2024/01/24 02:21:27;;;;;;;9.50;2.50;;;;;;;17.91;85.57;101234.72;5071601;28;20533;-48
2024/01/24 02:23:53;;;;;;;7.93;2.50;;;;;;;17.92;85.70;101222.66;5076780;28;20596;-43
2024/01/24 02:26:19;;;;;;;8.27;2.35;;;;;;;17.93;85.88;101249.81;5063910;28;20027;-43
2024/01/24 02:28:44;;;;;;;11.82;2.95;;;;;;;17.89;85.51;101242.38;5073221;28;20126;-52
2024/01/24 02:31:09;;;;;;;8.82;2.33;;;;;;;17.87;85.77;101228.94;5085079;28;20027;-50
2024/01/24 02:33:35;;;;;;;11.98;3.30;;;;;;;17.84;85.97;101237.72;5072107;28;20032;-44
2024/01/24 02:36:00;;;;;;;11.68;2.90;;;;;;;17.86;85.78;101226.47;5069527;28;20056;-39
2024/01/24 02:38:25;;;;;;;12.43;3.20;;;;;;;17.83;86.18;101229.75;5072929;28;20059;-41
2024/01/24 02:40:51;;;;;;;12.32;2.88;;;;;;;17.80;86.03;101269.47;5072391;28;20059;-44
2024/01/24 02:43:16;;;;;;;14.55;3.20;;;;;;;17.83;85.17;101254.41;5081501;28;20394;-42
2024/01/24 02:45:42;;;;;;;10.40;3.00;;;;;;;17.87;84.83;101250.88;5046773;28;20036;-40
2024/01/24 02:48:07;;;;;;;11.63;3.25;;;;;;;17.84;85.59;101256.91;5060774;28;20028;-43
2024/01/24 02:50:33;;;;;;;10.65;3.22;;;;;;;17.84;85.19;101248.69;5081529;28;20410;-41
2024/01/24 02:52:58;;;;;;;12.20;3.70;;;;;;;17.78;85.19;101228.63;5073438;28;20089;-40
2024/01/24 02:55:23;;;;;;;9.98;3.35;;;;;;;17.83;84.88;101240.72;5074948;28;20044;-39
2024/01/24 02:57:49;;;;;;;12.02;2.92;;;;;;;17.81;84.98;101257.44;5072663;28;20020;-42
2024/01/24 03:00:15;;;;;;;15.07;4.03;;;;;;;17.82;84.69;101270.06;5062163;28;20082;-39
2024/01/24 03:02:41;;;;;;;12.60;2.92;;;;;;;17.83;84.66;101284.56;5084401;28;20070;-39
2024/01/24 03:05:08;;;;;;;11.73;3.40;;;;;;;17.81;84.54;101271.94;5080986;28;20036;-47
2024/01/24 03:07:34;;;;;;;14.63;3.55;;;;;;;17.81;84.42;101261.00;5066584;28;20035;-52
2024/01/24 03:10:00;;;;;;;12.68;3.35;;;;;;;17.83;84.25;101241.56;5082599;28;20528;-50
2024/01/24 03:12:25;;;;;;;12.63;3.40;;;;;;;17.81;84.08;101276.63;5082352;28;20120;-47
2024/01/24 03:14:51;;;;;;;12.13;3.60;;;;;;;17.84;83.73;101280.75;5055270;28;20031;-48
2024/01/24 03:17:17;;;;;;;14.90;3.40;;;;;;;17.80;84.20;101253.03;5077069;28;20023;-51
2024/01/24 03:19:42;;;;;;;11.52;3.42;;;;;;;17.85;83.36;101255.78;5081741;28;20036;-42
2024/01/24 03:22:08;;;;;;;9.95;2.80;;;;;;;17.90;83.33;101261.34;5073054;28;20036;-42
2024/01/24 03:24:33;;;;;;;9.05;3.28;;;;;;;17.90;82.86;101285.16;5069223;28;20067;-43
2024/01/24 03:26:59;;;;;;;16.88;3.80;;;;;;;17.88;83.02;101284.59;5059966;28;20061;-49
2024/01/24 03:29:24;;;;;;;13.30;3.65;;;;;;;17.88;83.16;101281.84;5063869;28;20544;-49
2024/01/24 03:31:49;;;;;;;13.32;3.15;;;;;;;17.90;82.63;101293.41;5085493;28;20032;-49
2024/01/24 03:34:15;;;;;;;15.90;4.22;;;;;;;17.79;83.17;101278.78;5064780;28;20319;-50
2024/01/24 03:36:41;;;;;;;14.52;3.85;;;;;;;17.75;83.05;101267.53;5061187;28;20491;-52
2024/01/24 03:39:09;;;;;;;14.18;4.07;;;;;;;17.73;83.07;101286.19;5078510;28;20029;-48
2024/01/24 03:41:35;;;;;;;16.30;4.15;;;;;;;17.72;82.91;101292.75;5078148;28;20582;-49
2024/01/24 03:44:01;;;;;;;15.95;3.83;;;;;;;17.70;82.60;101299.59;5082795;28;20023;-47
2024/01/24 03:46:26;;;;;;;22.90;4.72;;;;;;;17.75;82.67;101270.28;5077014;28;20522;-48
2024/01/24 03:48:52;;;;;;;15.15;4.13;;;;;;;17.77;82.49;101276.31;5086334;28;20027;-44
2024/01/24 03:51:18;;;;;;;16.45;4.35;;;;;;;17.75;82.49;101299.63;5075754;28;20058;-43
2024/01/24 03:53:43;;;;;;;17.50;4.65;;;;;;;17.72;82.46;101306.47;5074592;28;20035;-40
2024/01/24 03:56:08;;;;;;;19.20;4.60;;;;;;;17.75;82.18;101296.88;5074580;28;20044;-42
2024/01/24 03:58:35;;;;;;;17.27;4.10;;;;;;;17.78;81.70;101304.56;5080717;28;20035;-44
2024/01/24 04:01:01;;;;;;;19.60;5.10;;;;;;;17.76;81.89;101285.63;5079141;28;20024;-40
2024/01/24 04:03:27;;;;;;;21.40;5.43;;;;;;;17.73;81.68;101305.38;5075169;28;20028;-42
2024/01/24 04:05:52;;;;;;;21.15;4.82;;;;;;;17.69;81.41;101314.38;5073596;28;20354;-41
2024/01/24 04:08:18;;;;;;;20.30;5.00;;;;;;;17.70;81.45;101308.63;5080995;28;20108;-40
2024/01/24 04:10:43;;;;;;;21.50;5.70;;;;;;;17.72;81.25;101300.97;5081358;28;20456;-40
2024/01/24 04:13:08;;;;;;;25.27;5.68;;;;;;;17.69;81.01;101297.94;5083593;28;20058;-41
2024/01/24 04:15:34;;;;;;;22.50;5.88;;;;;;;17.66;81.10;101304.78;5063438;28;20031;-43
2024/01/24 04:17:59;;;;;;;21.98;5.47;;;;;;;17.67;81.10;101300.09;5074450;28;20473;-42
2024/01/24 04:20:24;;;;;;;27.05;5.95;;;;;;;17.69;80.96;101314.38;5073290;28;20114;-40
2024/01/24 04:22:50;;;;;;;26.42;6.10;;;;;;;17.67;80.78;101338.47;5081013;28;20027;-41
2024/01/24 04:25:15;;;;;;;21.25;5.40;;;;;;;17.68;80.65;101335.47;5081201;28;20099;-42
2024/01/24 04:27:41;;;;;;;24.08;5.70;;;;;;;17.68;80.48;101331.91;5063085;28;20051;-39
2024/01/24 04:30:07;;;;;;;26.27;5.90;;;;;;;17.65;80.34;101344.22;5080952;28;20024;-43
2024/01/24 04:32:32;;;;;;;23.63;5.60;;;;;;;17.63;80.37;101354.63;5068834;28;20443;-42
2024/01/24 04:34:58;;;;;;;23.77;5.75;;;;;;;17.67;80.36;101346.69;5074873;28;20119;-40
2024/01/24 04:37:23;;;;;;;24.38;5.55;;;;;;;17.68;79.71;101351.91;5067740;28;20384;-40
2024/01/24 04:39:50;;;;;;;23.90;6.50;;;;;;;17.68;79.81;101364.81;5077785;28;20020;-40
2024/01/24 04:42:15;;;;;;;23.85;6.13;;;;;;;17.64;79.37;101369.97;5073810;28;20086;-40
2024/01/24 04:44:41;;;;;;;20.88;5.95;;;;;;;17.67;79.67;101387.81;5068733;28;20024;-41
2024/01/24 04:47:06;;;;;;;25.23;6.10;;;;;;;17.67;79.14;101387.81;5075713;28;20024;-41
2024/01/24 04:49:31;;;;;;;20.40;5.70;;;;;;;17.65;79.12;101388.91;5085028;28;20053;-39
2024/01/24 04:51:57;;;;;;;30.35;6.88;;;;;;;17.67;78.86;101391.41;5075763;28;20455;-40
2024/01/24 04:54:22;;;;;;;25.00;5.72;;;;;;;17.63;78.88;101401.22;5082009;28;20032;-49
2024/01/24 04:56:47;;;;;;;22.63;5.55;;;;;;;17.62;78.91;101388.59;5077433;28;20041;-53
2024/01/24 04:59:13;;;;;;;29.48;6.68;;;;;;;17.61;78.67;101382.28;5058846;28;20040;-51
2024/01/24 05:01:38;;;;;;;25.52;6.28;;;;;;;17.59;78.74;101380.91;5077554;28;20031;-52
2024/01/24 05:04:04;;;;;;;27.05;6.50;;;;;;;17.59;78.31;101408.31;5078191;28;20029;-49
2024/01/24 05:06:29;;;;;;;34.22;7.32;;;;;;;17.58;78.04;101399.28;5089997;28;20449;-51
2024/01/24 05:08:55;;;;;;;24.55;6.50;;;;;;;17.54;78.11;101384.44;5088752;28;20031;-51
2024/01/24 05:11:20;;;;;;;30.02;6.88;;;;;;;17.54;77.91;101383.63;5064363;28;20096;-51
2024/01/24 05:13:47;;;;;;;30.65;7.05;;;;;;;17.54;77.71;101389.09;5084383;28;20575;-48
2024/01/24 05:16:12;;;;;;;27.20;6.70;;;;;;;17.54;77.67;101380.88;5075899;28;20165;-52
2024/01/24 05:18:38;;;;;;;29.27;7.35;;;;;;;17.65;77.40;101399.06;5071320;28;20122;-51
2024/01/24 05:21:03;;;;;;;29.52;7.35;;;;;;;17.77;77.19;101385.19;5087754;28;20028;-47
2024/01/24 05:23:28;;;;;;;34.00;8.18;;;;;;;17.83;76.40;101394.25;5088373;28;20028;-52
2024/01/24 05:25:54;;;;;;;25.50;7.30;;;;;;;17.91;76.29;101396.53;5054544;28;20032;-52
2024/01/24 05:28:19;;;;;;;27.48;6.60;;;;;;;17.93;76.18;101392.41;5090114;28;20437;-50
2024/01/24 05:30:44;;;;;;;25.33;6.57;;;;;;;17.97;75.86;101403.72;5072780;28;20016;-53
2024/01/24 05:33:10;;;;;;;24.17;6.55;;;;;;;18.05;75.71;101418.84;5071121;28;20111;-50
2024/01/24 05:35:36;;;;;;;23.65;6.18;;;;;;;18.12;75.65;101428.53;5065101;28;20020;-44
2024/01/24 05:38:01;;;;;;;23.17;5.80;;;;;;;18.21;75.70;101428.88;5075467;28;20485;-41
2024/01/24 05:40:27;;;;;;;25.70;5.88;;;;;;;18.32;75.47;101418.78;5062111;28;20028;-40
2024/01/24 05:42:52;;;;;;;25.88;6.90;;;;;;;18.41;75.11;101435.56;5083824;28;20056;-41
2024/01/24 05:45:18;;;;;;;26.65;6.45;;;;;;;18.48;75.10;101462.78;5075160;28;20031;-44
2024/01/24 05:47:43;;;;;;;21.23;6.03;;;;;;;18.57;74.82;101494.13;5072927;28;20028;-42
2024/01/24 05:50:12;;;;;;;22.92;6.10;;;;;;;18.64;74.31;101492.00;5084758;28;20031;-41
2024/01/24 05:52:44;;;;;;;24.15;5.85;;;;;;;18.69;74.15;101482.97;5083482;28;20055;-44
2024/01/24 05:55:11;;;;;;;25.85;6.32;;;;;;;18.73;74.20;101467.59;5075801;28;20052;-42
2024/01/24 05:57:40;;;;;;;21.02;6.20;;;;;;;18.73;74.16;101482.13;5071851;28;20347;-42
2024/01/24 06:00:13;;;;;;;21.67;6.32;;;;;;;18.73;73.31;101492.31;5081458;28;20028;-39
2024/01/24 06:02:39;;;;;;;24.90;6.55;;;;;;;18.65;73.34;101501.88;5075858;28;20038;-40
2024/01/24 06:05:04;;;;;;;23.75;7.05;;;;;;;18.67;73.67;101502.41;5079000;28;20016;-45
2024/01/24 06:07:31;;;;;;;23.80;6.10;;;;;;;18.66;73.21;101508.19;5071715;28;20058;-46
2024/01/24 06:09:56;;;;;;;24.80;6.65;;;;;;;18.68;73.13;101514.25;5060272;28;20092;-39
2024/01/24 06:12:22;;;;;;;23.67;6.72;;;;;;;18.67;72.97;101515.34;5076902;28;20143;-41
2024/01/24 06:14:47;;;;;;;21.35;6.28;;;;;;;18.67;72.93;101524.38;5066224;28;20030;-42
2024/01/24 06:17:13;;;;;;;24.80;6.65;;;;;;;18.67;73.27;101529.06;5077063;28;20525;-43
2024/01/24 06:19:38;;;;;;;26.77;6.82;;;;;;;18.67;73.02;101531.81;5047869;28;20028;-41
2024/01/24 06:22:04;;;;;;;19.55;5.78;;;;;;;18.68;72.76;101525.22;5061446;28;20024;-42
2024/01/24 06:24:29;;;;;;;22.70;6.47;;;;;;;18.72;72.90;101534.59;5073428;28;20541;-42
2024/01/24 06:26:54;;;;;;;30.05;6.85;;;;;;;18.71;71.77;101538.41;5081159;28;20446;-40
2024/01/24 06:29:20;;;;;;;26.23;6.47;;;;;;;18.68;71.62;101520.56;5067832;28;20028;-43
2024/01/24 06:31:49;;;;;;;27.13;6.82;;;;;;;18.66;71.43;101555.69;5077455;28;20111;-44
2024/01/24 06:34:15;;;;;;;20.85;6.28;;;;;;;18.65;71.62;101565.03;5065601;28;20043;-41
2024/01/24 06:36:40;;;;;;;24.95;6.10;;;;;;;18.58;70.66;101557.00;5068972;28;20028;-43
2024/01/24 06:39:09;;;;;;;22.85;6.88;;;;;;;18.59;71.24;101586.13;5078760;28;20031;-52
2024/01/24 06:41:35;;;;;;;26.35;6.05;;;;;;;18.58;70.98;101580.91;5075038;28;20123;-48
2024/01/24 06:44:01;;;;;;;28.55;7.18;;;;;;;18.54;70.29;101599.81;5056482;28;20106;-50
2024/01/24 06:46:29;;;;;;;23.42;6.65;;;;;;;18.50;70.32;101595.91;5065528;28;20035;-52
2024/01/24 06:48:54;;;;;;;33.22;7.53;;;;;;;18.46;69.47;101600.28;5077220;28;20468;-53
2024/01/24 06:51:19;;;;;;;26.50;6.25;;;;;;;18.47;70.08;101587.38;5047482;28;20067;-48
2024/01/24 06:53:45;;;;;;;29.70;7.60;;;;;;;18.50;69.75;101582.19;5069155;28;20036;-50
2024/01/24 06:56:10;;;;;;;24.63;7.60;;;;;;;18.51;69.98;101583.84;5072593;28;20408;-53
2024/01/24 06:58:40;;;;;;;26.88;6.55;;;;;;;18.51;69.84;101585.78;5077841;28;20031;-53
2024/01/24 07:01:06;;;;;;;24.85;6.65;;;;;;;18.52;69.36;101577.28;5085683;28;20024;-51
2024/01/24 07:03:31;;;;;;;30.38;7.22;;;;;;;18.53;69.66;101589.91;5080266;28;20043;-52
2024/01/24 07:05:57;;;;;;;22.55;6.95;;;;;;;18.52;69.47;101587.44;5062044;28;20027;-50
2024/01/24 07:08:23;;;;;;;23.33;6.35;;;;;;;18.54;69.92;101612.69;5079276;28;20035;-53
2024/01/24 07:10:48;;;;;;;27.92;6.40;;;;;;;18.51;69.28;101578.34;5083782;28;20498;-51
2024/01/24 07:13:14;;;;;;;32.15;6.72;;;;;;;18.43;68.16;101587.09;5082411;28;20043;-40
2024/01/24 07:15:39;;;;;;;24.75;6.30;;;;;;;18.42;68.76;101608.22;5074111;28;20137;-41
2024/01/24 07:18:05;;;;;;;25.27;7.00;;;;;;;18.44;69.26;101616.19;5082632;28;20698;-51
2024/01/24 07:20:30;;;;;;;28.77;6.75;;;;;;;18.43;69.08;101622.78;5081448;28;20073;-48
2024/01/24 07:22:56;;;;;;;25.45;6.47;;;;;;;18.46;68.21;101632.41;5055246;28;20402;-51
2024/01/24 07:25:21;;;;;;;29.20;6.82;;;;;;;18.44;68.62;101607.94;5073382;28;20201;-43
2024/01/24 07:27:50;;;;;;;25.92;6.82;;;;;;;18.39;68.27;101624.38;5064640;28;20036;-43
2024/01/24 07:30:15;;;;;;;26.83;6.72;;;;;;;18.40;68.64;101628.78;5062945;28;20035;-45
2024/01/24 07:32:42;;;;;;;24.27;6.65;;;;;;;18.41;68.11;101633.19;5081492;28;20035;-44
2024/01/24 07:35:09;;;;;;;27.15;6.93;;;;;;;18.41;68.19;101657.88;5083070;28;20074;-40
2024/01/24 07:37:34;;;;;;;26.40;6.65;;;;;;;18.40;68.08;101657.03;5076259;28;21712;-44
2024/01/24 07:40:00;;;;;;;28.27;6.65;;;;;;;18.42;67.92;101700.72;5083216;28;20090;-43
2024/01/24 07:42:25;;;;;;;29.85;7.38;;;;;;;18.40;67.51;101679.00;5079952;28;20055;-48
2024/01/24 07:44:51;;;;;;;27.70;7.47;;;;;;;18.41;67.97;101702.59;5074046;28;20033;-49
2024/01/24 07:47:19;;;;;;;23.88;6.82;;;;;;;18.39;67.53;101703.97;5075477;28;20032;-50
2024/01/24 07:49:44;;;;;;;23.55;6.43;;;;;;;18.41;68.22;101688.88;5081964;28;20023;-51
2024/01/24 07:52:10;;;;;;;25.27;7.63;;;;;;;18.40;68.25;101700.94;5080851;28;20032;-49
2024/01/24 07:54:35;;;;;;;27.02;6.68;;;;;;;18.39;67.91;101712.19;5069874;28;20755;-47
2024/01/24 07:57:03;;;;;;;27.60;7.47;;;;;;;18.40;68.32;101724.84;5081579;28;20047;-53
2024/01/24 07:59:29;;;;;;;28.42;7.35;;;;;;;18.38;68.31;101711.38;5082167;28;20137;-53
2024/01/24 08:01:54;;;;;;;25.00;7.43;;;;;;;18.34;68.21;101715.72;5076915;28;20038;-51
2024/01/24 08:04:19;;;;;;;28.73;7.00;;;;;;;18.31;67.87;101708.00;5072186;28;20473;-52
2024/01/24 08:06:47;;;;;;;27.08;7.15;;;;;;;18.30;68.53;101713.75;5081265;28;20024;-48
2024/01/24 08:09:13;;;;;;;29.63;7.72;;;;;;;18.29;67.41;101737.59;5052711;28;20024;-51
2024/01/24 08:11:39;;;;;;;26.35;7.43;;;;;;;18.30;67.88;101741.19;5068524;28;20651;-53
2024/01/24 08:14:04;;;;;;;27.70;7.55;;;;;;;18.34;68.24;101739.59;5075982;28;20027;-51
2024/01/24 08:16:29;;;;;;;23.08;6.10;;;;;;;18.33;66.83;101736.03;5083491;28;20032;-48
2024/01/24 08:18:55;;;;;;;28.42;7.97;;;;;;;18.35;67.23;101733.03;5052619;28;20113;-52
2024/01/24 08:21:20;;;;;;;26.58;7.32;;;;;;;18.35;66.92;101731.09;5056965;28;20055;-53
2024/01/24 08:23:46;;;;;;;23.77;6.43;;;;;;;18.36;67.14;101746.47;5077684;28;20392;-52
2024/01/24 08:26:12;;;;;;;20.60;6.82;;;;;;;18.35;67.16;101744.81;5084422;28;20081;-51
2024/01/24 08:28:37;;;;;;;26.67;6.55;;;;;;;18.31;66.91;101782.09;5083485;28;20050;-51
2024/01/24 08:31:03;;;;;;;23.00;6.45;;;;;;;18.27;67.37;101776.28;5060547;28;20436;-52
2024/01/24 08:33:30;;;;;;;26.73;6.40;;;;;;;18.28;67.75;101799.91;5056291;28;20108;-52
2024/01/24 08:35:55;;;;;;;27.83;6.57;;;;;;;18.26;67.25;101788.34;5083071;28;20024;-50
2024/01/24 08:38:20;;;;;;;26.00;6.63;;;;;;;18.22;67.18;101787.22;5061069;28;20032;-50
2024/01/24 08:40:46;;;;;;;27.30;7.10;;;;;;;18.22;67.72;101768.00;5082004;28;20048;-51
2024/01/24 08:43:11;;;;;;;27.23;6.60;;;;;;;18.22;67.65;101781.72;5080136;28;20528;-51
2024/01/24 08:45:37;;;;;;;34.30;6.90;;;;;;;18.22;66.84;101772.66;5085080;28;20020;-50
2024/01/24 08:48:02;;;;;;;25.38;6.60;;;;;;;18.20;66.41;101788.56;5078205;28;20066;-51
2024/01/24 08:50:28;;;;;;;24.17;7.05;;;;;;;18.16;67.07;101799.22;5084317;28;20533;-51
2024/01/24 08:52:53;;;;;;;30.27;7.80;;;;;;;18.16;66.68;101825.78;5063538;28;20016;-53
2024/01/24 08:55:19;;;;;;;27.15;7.60;;;;;;;18.15;66.90;101849.69;5083699;28;20074;-52
2024/01/24 08:57:44;;;;;;;26.52;6.72;;;;;;;18.14;67.19;101828.81;5044389;28;20408;-51
2024/01/24 09:00:11;;;;;;;25.80;6.90;;;;;;;18.12;66.61;101823.56;5076767;28;20266;-54
2024/01/24 09:02:37;;;;;;;25.52;6.97;;;;;;;18.14;66.93;101831.56;5082534;28;20083;-48
2024/01/24 09:05:03;;;;;;;27.63;7.47;;;;;;;18.17;66.70;101839.25;5084187;28;20468;-52
2024/01/24 09:07:28;;;;;;;26.77;7.20;;;;;;;18.13;66.54;101835.38;5084044;28;20039;-53
2024/01/24 09:09:54;;;;;;;27.52;7.07;;;;;;;18.12;66.38;101831.81;5070930;28;20032;-52
2024/01/24 09:12:19;;;;;;;24.73;6.75;;;;;;;18.12;66.07;101848.28;5082487;28;20111;-49
2024/01/24 09:14:44;;;;;;;26.73;6.38;;;;;;;18.13;66.30;101884.75;5078057;28;20031;-54
2024/01/24 09:17:13;;;;;;;28.50;7.18;;;;;;;18.12;65.97;101900.41;5079053;28;20107;-54
2024/01/24 09:19:42;;;;;;;27.83;6.43;;;;;;;18.09;65.82;101892.66;5067919;28;20055;-54
2024/01/24 09:22:09;;;;;;;27.63;7.40;;;;;;;18.12;66.15;101883.09;5066355;28;20451;-50
2024/01/24 09:24:34;;;;;;;27.60;7.43;;;;;;;18.09;65.45;101898.16;5076215;28;20435;-40
2024/01/24 09:27:00;;;;;;;23.25;6.15;;;;;;;18.09;65.65;101902.81;5075743;28;20028;-45
2024/01/24 09:29:26;;;;;;;20.63;6.05;;;;;;;18.07;65.68;101900.28;5079738;28;20066;-44
2024/01/24 09:31:52;;;;;;;20.75;5.85;;;;;;;18.14;65.96;101886.41;5076702;28;20035;-42
2024/01/24 09:34:17;;;;;;;23.85;6.53;;;;;;;18.16;65.88;101897.13;5079429;28;20032;-43
2024/01/24 09:36:43;;;;;;;24.13;6.38;;;;;;;18.16;66.07;101884.25;5082909;28;20020;-43
2024/01/24 09:39:11;;;;;;;22.88;6.57;;;;;;;18.17;66.06;101896.88;5084273;28;20039;-44
2024/01/24 09:41:41;;;;;;;23.95;6.72;;;;;;;18.17;65.69;101913.34;5070051;28;20110;-42
2024/01/24 09:44:09;;;;;;;25.40;6.78;;;;;;;18.16;65.61;101910.84;5070949;28;20036;-44
2024/01/24 09:46:36;;;;;;;24.70;6.55;;;;;;;18.19;65.68;101919.41;5082161;28;20032;-44
2024/01/24 09:49:02;;;;;;;29.45;7.45;;;;;;;18.21;65.79;101930.97;5070618;28;20465;-43
2024/01/24 09:51:33;;;;;;;39.15;7.60;;;;;;;18.26;65.82;101927.47;5083066;28;20020;-44
2024/01/24 09:54:03;;;;;;;29.92;7.93;;;;;;;18.36;65.77;101933.09;5065457;28;20028;-39
2024/01/24 09:56:30;;;;;;;30.25;7.28;;;;;;;18.50;66.25;101924.50;5077323;28;20059;-43
2024/01/24 09:58:55;;;;;;;30.65;7.78;;;;;;;18.56;66.16;101957.25;5058088;28;20028;-42
2024/01/24 10:01:21;;;;;;;31.45;8.45;;;;;;;18.63;66.05;101972.75;5085927;28;20023;-47
2024/01/24 10:03:47;;;;;;;27.02;6.78;;;;;;;18.69;65.48;101982.72;5084251;28;20178;-47
2024/01/24 10:06:14;;;;;;;25.52;7.50;;;;;;;18.76;65.54;101969.59;5063889;28;20046;-50
2024/01/24 10:08:39;;;;;;;27.23;7.55;;;;;;;18.78;65.34;101961.94;5062743;28;20610;-50
2024/01/24 10:11:06;;;;;;;27.60;7.45;;;;;;;18.81;65.18;101985.31;5081082;28;20023;-49
2024/01/24 10:13:31;;;;;;;24.60;6.95;;;;;;;18.85;64.79;101990.03;5076300;28;20027;-49
2024/01/24 10:15:59;;;;;;;30.80;7.35;;;;;;;18.87;64.80;102000.78;5083096;28;20373;-50
2024/01/24 10:18:24;;;;;;;28.75;7.30;;;;;;;18.93;64.78;101999.78;5077097;28;20399;-48
2024/01/24 10:20:50;;;;;;;20.50;6.13;;;;;;;18.94;64.56;102011.63;5073441;28;20023;-54
2024/01/24 10:23:15;;;;;;;21.25;6.63;;;;;;;18.95;64.44;102029.78;5080982;28;20282;-51
2024/01/24 10:25:41;;;;;;;21.98;6.70;;;;;;;18.98;64.37;102030.09;5066063;28;20391;-46
2024/01/24 10:28:13;;;;;;;22.42;6.38;;;;;;;19.01;64.21;102001.28;5080042;28;20033;-50
2024/01/24 10:30:41;;;;;;;24.15;6.60;;;;;;;19.05;64.41;102036.19;5076367;28;20309;-48
2024/01/24 10:33:11;;;;;;;23.77;6.30;;;;;;;19.11;63.87;102022.56;5083276;28;20250;-53
2024/01/24 10:35:37;;;;;;;24.60;6.60;;;;;;;19.15;63.93;102018.19;5065193;28;20032;-48
2024/01/24 10:38:02;;;;;;;24.00;6.22;;;;;;;19.18;63.85;102036.94;5086706;28;20301;-49
2024/01/24 10:40:28;;;;;;;23.10;6.85;;;;;;;19.15;63.77;102037.44;5083546;28;20461;-47
2024/01/24 10:43:00;;;;;;;29.08;7.45;;;;;;;19.13;63.48;102037.69;5072063;28;20081;-54
2024/01/24 10:45:26;;;;;;;22.83;7.00;;;;;;;19.16;63.47;102052.84;5059165;28;20472;-46
2024/01/24 10:47:52;;;;;;;26.42;7.50;;;;;;;19.22;63.26;102062.81;5065606;28;20043;-42
2024/01/24 10:50:18;;;;;;;21.40;6.75;;;;;;;19.28;63.53;102066.47;5072360;28;20432;-39
2024/01/24 10:52:44;;;;;;;29.88;7.47;;;;;;;19.28;63.31;102056.28;5078318;28;20027;-46
2024/01/24 10:55:12;;;;;;;32.72;7.28;;;;;;;19.27;62.98;102057.38;5074747;28;20093;-40
2024/01/24 10:57:40;;;;;;;28.80;7.68;;;;;;;19.24;63.32;102041.41;5059558;28;20024;-42
2024/01/24 11:00:06;;;;;;;22.92;6.28;;;;;;;19.23;63.00;102047.97;5076129;28;20016;-49
2024/01/24 11:02:32;;;;;;;23.88;7.15;;;;;;;19.22;62.91;102062.81;5072658;28;20028;-50
2024/01/24 11:05:00;;;;;;;28.73;6.80;;;;;;;19.26;63.12;102080.44;5071285;28;20532;-49
2024/01/24 11:07:29;;;;;;;23.45;6.47;;;;;;;19.26;62.73;102072.19;5064793;28;20476;-51
2024/01/24 11:10:12;;;;;;;27.90;6.82;;;;;;;19.25;62.99;102084.25;5080244;28;20541;-49
2024/01/24 11:12:38;;;;;;;20.58;6.22;;;;;;;19.26;63.01;102082.38;5079314;28;20047;-51